Time;durP1;ratioP1;P1;durP2;ratioP2;P2;SDS_P1;SDS_P2;PMS_P1;PMS_P2;Temp;Humidity;BMP_temperature;BMP_pressure;BME280_temperature;BME280_humidity;BME280_pressure;Samples;Min_cycle;Max_cycle;Signal;HPM_P1;HPM_P2
2022/03/02 00:00:34;;;;;;;8.32;5.18;;;;;;;;;;8257689;28;20030;-62
2022/03/02 00:04:34;;;;;;;12.00;5.95;;;;;;;;;;8259672;28;20521;-61
2022/03/02 00:08:35;;;;;;;9.50;6.20;;;;;;;;;;8256749;28;20025;-61
2022/03/02 00:12:35;;;;;;;10.15;5.78;;;;;;;;;;8256229;28;20034;-61
2022/03/02 00:16:36;;;;;;;12.70;6.53;;;;;;;;;;8256016;28;20034;-61
2022/03/02 00:20:36;;;;;;;10.70;6.30;;;;;;;;;;8257473;28;20280;-61
2022/03/02 00:24:36;;;;;;;11.20;6.35;;;;;;;;;;8258822;28;20033;-62
2022/03/02 00:28:36;;;;;;;15.52;6.90;;;;;;;;;;8254540;28;20030;-61
2022/03/02 00:32:37;;;;;;;10.45;5.85;;;;;;;;;;8257186;28;20103;-61
2022/03/02 00:36:37;;;;;;;11.50;6.03;;;;;;;;;;8255171;28;20041;-61
2022/03/02 00:40:38;;;;;;;11.93;6.72;;;;;;;;;;8268005;28;20314;-61
2022/03/02 00:44:38;;;;;;;9.45;6.05;;;;;;;;;;8254419;28;20107;-61
2022/03/02 00:48:39;;;;;;;9.10;5.55;;;;;;;;;;8253609;28;20042;-62
2022/03/02 00:52:39;;;;;;;10.52;6.00;;;;;;;;;;8253298;28;20470;-61
2022/03/02 00:56:39;;;;;;;9.07;5.63;;;;;;;;;;8255044;28;20772;-61
2022/03/02 01:00:40;;;;;;;10.00;5.95;;;;;;;;;;8257640;28;20062;-61
2022/03/02 01:04:40;;;;;;;10.98;5.82;;;;;;;;;;8255278;28;20070;-61
2022/03/02 01:08:40;;;;;;;8.73;5.78;;;;;;;;;;8256618;28;20798;-61
2022/03/02 01:12:41;;;;;;;9.13;5.95;;;;;;;;;;8253316;28;20014;-62
2022/03/02 01:16:41;;;;;;;9.48;5.65;;;;;;;;;;8254350;28;20534;-61
2022/03/02 01:20:42;;;;;;;12.63;6.85;;;;;;;;;;8251862;28;20121;-61
2022/03/02 01:24:42;;;;;;;9.30;5.40;;;;;;;;;;8256757;28;20037;-61
2022/03/02 01:28:43;;;;;;;11.73;6.28;;;;;;;;;;8253895;28;20324;-61
2022/03/02 01:32:43;;;;;;;9.80;5.80;;;;;;;;;;8253844;28;20040;-61
2022/03/02 01:36:43;;;;;;;10.30;6.47;;;;;;;;;;8254639;28;20095;-61
2022/03/02 01:40:43;;;;;;;13.75;6.18;;;;;;;;;;8251751;28;20036;-61
2022/03/02 01:44:43;;;;;;;10.13;5.95;;;;;;;;;;8252352;28;20443;-61
2022/03/02 01:48:44;;;;;;;12.18;6.28;;;;;;;;;;8252846;28;20075;-61
2022/03/02 01:52:44;;;;;;;9.05;5.80;;;;;;;;;;8252891;28;20886;-61
2022/03/02 01:56:44;;;;;;;11.65;7.03;;;;;;;;;;8255750;28;20596;-61
2022/03/02 02:00:45;;;;;;;12.07;7.07;;;;;;;;;;8253544;28;20214;-61
2022/03/02 02:04:45;;;;;;;12.13;5.50;;;;;;;;;;8256660;28;20125;-61
2022/03/02 02:08:45;;;;;;;9.30;5.93;;;;;;;;;;8253275;28;20033;-62
2022/03/02 02:12:45;;;;;;;12.02;6.20;;;;;;;;;;8254422;28;20288;-61
2022/03/02 02:16:46;;;;;;;9.10;5.93;;;;;;;;;;8251972;28;20273;-61
2022/03/02 02:20:46;;;;;;;10.30;6.65;;;;;;;;;;8251336;28;20025;-61
2022/03/02 02:24:46;;;;;;;9.85;6.75;;;;;;;;;;8251333;28;20625;-61
2022/03/02 02:28:47;;;;;;;11.70;6.43;;;;;;;;;;8252603;28;20034;-61
2022/03/02 02:32:48;;;;;;;11.27;6.28;;;;;;;;;;8251981;28;20104;-61
2022/03/02 02:36:49;;;;;;;10.20;6.47;;;;;;;;;;8251501;28;20102;-61
2022/03/02 02:40:49;;;;;;;12.82;5.93;;;;;;;;;;8247469;28;20110;-61
2022/03/02 02:44:50;;;;;;;8.68;5.75;;;;;;;;;;8249590;28;20133;-61
2022/03/02 02:48:50;;;;;;;12.85;6.47;;;;;;;;;;8250564;28;20038;-61
2022/03/02 02:52:51;;;;;;;13.25;6.70;;;;;;;;;;8251709;28;20023;-62
2022/03/02 02:56:51;;;;;;;9.25;6.28;;;;;;;;;;8253636;28;20036;-61
2022/03/02 03:00:51;;;;;;;9.48;5.65;;;;;;;;;;8259815;28;20858;-62
2022/03/02 03:04:52;;;;;;;8.77;5.45;;;;;;;;;;8254759;28;20668;-61
2022/03/02 03:08:52;;;;;;;10.73;5.72;;;;;;;;;;8251835;28;20269;-61
2022/03/02 03:12:52;;;;;;;8.32;5.45;;;;;;;;;;8251062;28;20461;-61
2022/03/02 03:16:52;;;;;;;9.73;6.50;;;;;;;;;;8249869;28;20092;-61
2022/03/02 03:20:52;;;;;;;9.15;5.60;;;;;;;;;;8249890;28;20283;-61
2022/03/02 03:24:53;;;;;;;8.90;5.63;;;;;;;;;;8251436;28;20034;-61
2022/03/02 03:28:53;;;;;;;11.85;6.38;;;;;;;;;;8251297;28;20053;-61
2022/03/02 03:32:54;;;;;;;9.07;5.82;;;;;;;;;;8249259;28;20741;-61
2022/03/02 03:36:54;;;;;;;8.70;5.82;;;;;;;;;;8251165;28;20026;-61
2022/03/02 03:40:55;;;;;;;8.80;5.78;;;;;;;;;;8256289;28;20025;-61
2022/03/02 03:44:55;;;;;;;9.55;5.70;;;;;;;;;;8256434;28;20112;-61
2022/03/02 03:48:55;;;;;;;7.78;5.70;;;;;;;;;;8257338;28;20042;-61
2022/03/02 03:52:55;;;;;;;10.07;6.05;;;;;;;;;;8257395;28;20061;-61
2022/03/02 03:56:56;;;;;;;11.85;6.10;;;;;;;;;;8257111;28;20128;-61
2022/03/02 04:00:56;;;;;;;7.88;5.70;;;;;;;;;;8258869;28;20037;-61
2022/03/02 04:04:56;;;;;;;10.23;5.53;;;;;;;;;;8258467;28;20014;-61
2022/03/02 04:08:56;;;;;;;9.13;5.80;;;;;;;;;;8260935;28;20082;-61
2022/03/02 04:12:57;;;;;;;8.15;5.68;;;;;;;;;;8266139;28;20375;-61
2022/03/02 04:16:57;;;;;;;10.02;6.15;;;;;;;;;;8258825;28;20092;-61
2022/03/02 04:20:57;;;;;;;11.10;6.00;;;;;;;;;;8253580;28;20264;-61
2022/03/02 04:24:58;;;;;;;10.35;5.88;;;;;;;;;;8258407;28;20075;-62
2022/03/02 04:28:58;;;;;;;13.48;6.70;;;;;;;;;;8255879;28;20690;-62
2022/03/02 04:32:58;;;;;;;8.50;6.00;;;;;;;;;;8254897;28;20397;-62
2022/03/02 04:36:58;;;;;;;12.63;6.53;;;;;;;;;;8256048;28;20030;-62
2022/03/02 04:40:59;;;;;;;13.57;7.18;;;;;;;;;;8256809;28;20278;-62
2022/03/02 04:44:59;;;;;;;13.85;7.18;;;;;;;;;;8254672;28;20841;-62
2022/03/02 04:49:10;;;;;;;15.75;7.32;;;;;;;;;;8254247;28;20037;-62
2022/03/02 04:53:10;;;;;;;11.77;6.88;;;;;;;;;;8256791;28;20124;-62
2022/03/02 04:57:10;;;;;;;10.52;6.43;;;;;;;;;;8257151;28;20509;-62
2022/03/02 05:01:11;;;;;;;11.35;6.50;;;;;;;;;;8256674;28;20440;-62
2022/03/02 05:05:12;;;;;;;10.13;6.50;;;;;;;;;;8256386;28;20048;-62
2022/03/02 05:09:12;;;;;;;15.50;8.40;;;;;;;;;;8255661;28;20026;-62
2022/03/02 05:13:13;;;;;;;10.85;6.90;;;;;;;;;;8255088;28;20036;-62
2022/03/02 05:17:13;;;;;;;11.35;6.55;;;;;;;;;;8255459;28;20268;-61
2022/03/02 05:21:14;;;;;;;11.25;6.85;;;;;;;;;;8256137;28;20990;-62
2022/03/02 05:25:16;;;;;;;9.30;6.22;;;;;;;;;;8255943;28;20077;-61
2022/03/02 05:29:16;;;;;;;17.65;7.47;;;;;;;;;;8255267;28;20036;-62
2022/03/02 05:33:16;;;;;;;22.00;10.40;;;;;;;;;;8251536;28;20045;-62
2022/03/02 05:37:16;;;;;;;20.95;8.02;;;;;;;;;;8251570;28;20787;-61
2022/03/02 05:41:17;;;;;;;13.88;7.32;;;;;;;;;;8252312;28;20056;-62
2022/03/02 05:45:17;;;;;;;12.65;7.20;;;;;;;;;;8251579;28;20056;-62
2022/03/02 05:49:17;;;;;;;10.07;6.88;;;;;;;;;;8252961;28;20028;-62
2022/03/02 05:53:18;;;;;;;13.47;7.10;;;;;;;;;;8250243;28;20044;-62
2022/03/02 05:57:18;;;;;;;14.10;8.07;;;;;;;;;;8253520;28;20381;-62
2022/03/02 06:01:19;;;;;;;14.55;7.60;;;;;;;;;;8252671;28;20037;-62
2022/03/02 06:05:19;;;;;;;17.60;7.82;;;;;;;;;;8253744;28;20026;-62
2022/03/02 06:09:20;;;;;;;12.02;7.07;;;;;;;;;;8251592;28;20038;-61
2022/03/02 06:13:20;;;;;;;16.25;7.82;;;;;;;;;;8248874;28;21013;-61
2022/03/02 06:17:20;;;;;;;13.10;7.07;;;;;;;;;;8251365;28;20044;-61
2022/03/02 06:21:25;;;;;;;13.23;6.05;;;;;;;;;;8251621;28;20280;-61
2022/03/02 06:25:25;;;;;;;10.80;5.72;;;;;;;;;;8250850;28;20033;-61
2022/03/02 06:29:26;;;;;;;14.43;7.40;;;;;;;;;;8249850;28;20881;-62
2022/03/02 06:33:26;;;;;;;20.05;10.43;;;;;;;;;;8250065;28;20655;-62
2022/03/02 06:37:26;;;;;;;26.65;12.00;;;;;;;;;;8249708;28;20454;-62
2022/03/02 06:41:36;;;;;;;17.50;8.47;;;;;;;;;;8249470;28;20040;-61
2022/03/02 06:45:55;;;;;;;16.75;7.80;;;;;;;;;;8249304;28;20658;-62
2022/03/02 06:49:55;;;;;;;18.73;8.07;;;;;;;;;;8252838;28;20029;-61
2022/03/02 06:53:57;;;;;;;16.65;7.47;;;;;;;;;;8251769;28;20060;-62
2022/03/02 06:58:00;;;;;;;13.25;7.60;;;;;;;;;;8253052;28;20084;-62
2022/03/02 07:02:02;;;;;;;15.65;6.90;;;;;;;;;;8251884;28;20141;-61
2022/03/02 07:06:03;;;;;;;14.07;8.30;;;;;;;;;;8253824;28;20041;-61
2022/03/02 07:10:05;;;;;;;16.10;7.82;;;;;;;;;;8250586;28;20041;-62
2022/03/02 07:14:07;;;;;;;15.35;7.53;;;;;;;;;;8256852;28;20084;-61
2022/03/02 07:18:07;;;;;;;12.25;7.28;;;;;;;;;;8256687;28;20030;-61
2022/03/02 07:22:07;;;;;;;11.80;6.95;;;;;;;;;;8258907;28;20029;-62
2022/03/02 07:26:08;;;;;;;16.88;7.65;;;;;;;;;;8254083;28;20056;-61
2022/03/02 07:30:09;;;;;;;12.63;6.95;;;;;;;;;;8256196;28;20029;-62
2022/03/02 07:34:11;;;;;;;13.70;6.95;;;;;;;;;;8255868;28;20032;-61
2022/03/02 07:38:11;;;;;;;12.60;7.13;;;;;;;;;;8256894;28;20029;-61
2022/03/02 07:42:11;;;;;;;13.40;7.05;;;;;;;;;;8255272;28;20026;-62
2022/03/02 07:46:12;;;;;;;10.07;5.78;;;;;;;;;;8252279;28;20073;-62
2022/03/02 07:50:13;;;;;;;15.30;6.57;;;;;;;;;;8253818;28;20283;-62
2022/03/02 07:54:14;;;;;;;9.48;5.75;;;;;;;;;;8257941;28;20560;-62
2022/03/02 07:58:15;;;;;;;9.20;6.05;;;;;;;;;;8258216;28;20029;-62
2022/03/02 08:02:16;;;;;;;10.57;6.55;;;;;;;;;;8257043;28;20049;-62
2022/03/02 08:06:17;;;;;;;9.88;6.07;;;;;;;;;;8257089;28;20034;-62
2022/03/02 08:10:18;;;;;;;9.00;6.10;;;;;;;;;;8255298;28;20041;-62
2022/03/02 08:14:21;;;;;;;12.70;6.22;;;;;;;;;;8256904;28;20038;-62
2022/03/02 08:18:21;;;;;;;10.95;5.20;;;;;;;;;;8256410;28;20042;-62
2022/03/02 08:22:23;;;;;;;16.40;6.22;;;;;;;;;;8243055;28;20041;-62
2022/03/02 08:26:25;;;;;;;11.88;6.60;;;;;;;;;;8269220;28;20026;-62
2022/03/02 08:30:25;;;;;;;10.43;6.35;;;;;;;;;;8252602;28;20643;-62
2022/03/02 08:34:26;;;;;;;10.23;6.03;;;;;;;;;;8253520;28;20115;-62
2022/03/02 08:38:26;;;;;;;11.07;6.30;;;;;;;;;;8253782;28;20042;-62
2022/03/02 08:42:26;;;;;;;9.85;6.18;;;;;;;;;;8252527;28;20022;-62
2022/03/02 08:46:27;;;;;;;8.40;5.93;;;;;;;;;;8253885;28;20149;-62
2022/03/02 08:50:27;;;;;;;15.05;5.75;;;;;;;;;;8268459;28;20112;-63
2022/03/02 08:54:30;;;;;;;11.63;6.38;;;;;;;;;;8253218;28;20026;-62
2022/03/02 08:58:30;;;;;;;10.35;6.13;;;;;;;;;;8254161;28;20033;-62
2022/03/02 09:02:34;;;;;;;8.10;5.75;;;;;;;;;;8241087;28;20798;-62
2022/03/02 09:06:35;;;;;;;10.30;6.05;;;;;;;;;;8253705;28;20784;-62
2022/03/02 09:10:35;;;;;;;9.10;5.93;;;;;;;;;;8251668;28;20045;-62
2022/03/02 09:14:37;;;;;;;11.55;5.97;;;;;;;;;;8253141;28;20021;-62
2022/03/02 09:18:37;;;;;;;10.95;6.05;;;;;;;;;;8252992;28;20042;-62
2022/03/02 09:22:39;;;;;;;9.40;6.28;;;;;;;;;;8239589;28;20038;-62
2022/03/02 09:26:40;;;;;;;7.95;5.95;;;;;;;;;;8254053;28;20022;-62
2022/03/02 09:30:40;;;;;;;9.98;6.35;;;;;;;;;;8251339;28;20044;-62
2022/03/02 09:34:45;;;;;;;12.32;6.53;;;;;;;;;;8251312;28;20068;-62
2022/03/02 09:38:47;;;;;;;;;;;;;;;;;;8252482;28;20037;-62
2022/03/02 09:42:53;;;;;;;11.20;6.20;;;;;;;;;;8250901;28;19917;-62
2022/03/02 09:46:56;;;;;;;9.13;6.20;;;;;;;;;;8252091;28;20042;-62
2022/03/02 09:50:58;;;;;;;13.33;6.37;;;;;;;;;;8250881;28;20055;-62
2022/03/02 09:54:59;;;;;;;7.43;5.93;;;;;;;;;;8254569;28;20025;-62
2022/03/02 09:59:00;;;;;;;8.02;5.90;;;;;;;;;;8252567;28;20096;-62
2022/03/02 10:03:00;;;;;;;9.85;6.45;;;;;;;;;;8252031;28;20052;-62
2022/03/02 10:11:24;;;;;;;10.15;5.80;;;;;;;;;;8249682;28;20057;-62
2022/03/02 10:15:25;;;;;;;7.95;5.75;;;;;;;;;;8246929;28;20033;-62
2022/03/02 10:19:26;;;;;;;11.18;6.90;;;;;;;;;;8248361;28;20896;-62
2022/03/02 10:23:34;;;;;;;11.43;6.95;;;;;;;;;;8246358;28;20136;-62
2022/03/02 10:27:35;;;;;;;10.00;6.75;;;;;;;;;;8247134;28;20037;-62
2022/03/02 10:31:44;;;;;;;10.82;6.80;;;;;;;;;;8245367;28;20044;-62
2022/03/02 10:36:03;;;;;;;10.75;6.60;;;;;;;;;;8248001;28;20021;-62
2022/03/02 10:40:17;;;;;;;11.15;6.90;;;;;;;;;;8248395;28;20505;-62
2022/03/02 10:44:17;;;;;;;13.57;7.40;;;;;;;;;;8248256;28;20125;-62
2022/03/02 10:48:42;;;;;;;9.35;6.53;;;;;;;;;;8248151;28;20084;-62
2022/03/02 10:52:43;;;;;;;11.40;7.15;;;;;;;;;;8249154;28;20030;-62
2022/03/02 10:56:44;;;;;;;11.07;7.30;;;;;;;;;;8246228;28;20088;-62
2022/03/02 11:00:45;;;;;;;15.13;7.50;;;;;;;;;;8246852;28;20116;-62
2022/03/02 11:04:46;;;;;;;13.65;7.00;;;;;;;;;;8245661;28;20039;-63
2022/03/02 11:08:48;;;;;;;10.43;6.82;;;;;;;;;;8246532;28;20030;-62
2022/03/02 11:12:50;;;;;;;12.57;6.45;;;;;;;;;;8246484;28;20046;-62
2022/03/02 11:16:50;;;;;;;12.93;7.03;;;;;;;;;;8245499;28;20038;-62
2022/03/02 11:20:59;;;;;;;10.38;6.85;;;;;;;;;;8247702;28;20233;-62
2022/03/02 11:24:59;;;;;;;10.63;6.75;;;;;;;;;;8246887;28;20029;-62
2022/03/02 11:29:00;;;;;;;10.45;6.65;;;;;;;;;;8244897;28;20352;-63
2022/03/02 11:33:06;;;;;;;11.13;7.00;;;;;;;;;;8245645;28;20139;-62
2022/03/02 11:37:08;;;;;;;9.43;6.32;;;;;;;;;;8246874;28;20041;-62
2022/03/02 11:41:09;;;;;;;10.93;6.75;;;;;;;;;;8244672;28;20036;-62
2022/03/02 11:45:11;;;;;;;10.88;7.20;;;;;;;;;;8248510;28;20036;-62
2022/03/02 11:49:11;;;;;;;12.68;6.78;;;;;;;;;;8247593;28;20032;-62
2022/03/02 11:53:11;;;;;;;10.38;6.53;;;;;;;;;;8247471;28;20117;-62
2022/03/02 11:57:13;;;;;;;9.70;6.70;;;;;;;;;;8246834;28;20666;-62
2022/03/02 12:01:13;;;;;;;10.60;6.32;;;;;;;;;;8250399;28;20033;-62
2022/03/02 12:05:14;;;;;;;10.57;6.50;;;;;;;;;;8252018;28;20037;-62
2022/03/02 12:09:31;;;;;;;7.80;6.40;;;;;;;;;;8253179;28;20123;-62
2022/03/02 12:13:31;;;;;;;9.15;6.53;;;;;;;;;;8254294;28;20048;-62
2022/03/02 12:17:33;;;;;;;11.77;6.13;;;;;;;;;;8253649;28;20074;-62
2022/03/02 12:21:33;;;;;;;11.40;6.95;;;;;;;;;;8253763;28;20551;-62
2022/03/02 12:25:33;;;;;;;10.67;6.97;;;;;;;;;;8252302;28;20413;-62
2022/03/02 12:29:35;;;;;;;10.88;6.45;;;;;;;;;;8253616;28;20737;-62
2022/03/02 12:33:35;;;;;;;9.43;6.68;;;;;;;;;;8251627;28;20052;-62
2022/03/02 12:37:36;;;;;;;11.07;6.63;;;;;;;;;;8252853;28;20065;-62
2022/03/02 12:41:36;;;;;;;9.98;6.50;;;;;;;;;;8254357;28;20091;-62
2022/03/02 12:45:44;;;;;;;11.68;7.10;;;;;;;;;;8255282;28;20034;-62
2022/03/02 12:49:45;;;;;;;10.13;6.82;;;;;;;;;;8254313;28;20560;-62
2022/03/02 12:53:47;;;;;;;10.07;6.75;;;;;;;;;;8253967;28;20046;-62
2022/03/02 12:57:47;;;;;;;14.10;7.03;;;;;;;;;;8252903;28;20135;-62
2022/03/02 13:01:47;;;;;;;13.77;6.93;;;;;;;;;;8252549;28;20046;-62
2022/03/02 13:05:50;;;;;;;12.40;6.70;;;;;;;;;;8253015;28;20037;-62
2022/03/02 13:09:50;;;;;;;9.98;6.32;;;;;;;;;;8251415;28;20029;-61
2022/03/02 13:13:51;;;;;;;10.45;6.70;;;;;;;;;;8251695;28;20091;-61
2022/03/02 13:18:06;;;;;;;9.43;6.40;;;;;;;;;;8246885;28;20042;-61
2022/03/02 13:22:07;;;;;;;11.90;6.90;;;;;;;;;;8250485;28;20040;-61
2022/03/02 13:26:07;;;;;;;12.00;7.33;;;;;;;;;;8249694;28;20029;-61
2022/03/02 13:30:08;;;;;;;9.65;6.57;;;;;;;;;;8247488;28;20303;-61
2022/03/02 13:34:09;;;;;;;8.57;6.03;;;;;;;;;;8251588;28;20092;-61
2022/03/02 13:38:10;;;;;;;10.25;6.50;;;;;;;;;;8249952;28;20021;-61
2022/03/02 13:42:20;;;;;;;9.48;6.35;;;;;;;;;;8252716;28;20088;-61
2022/03/02 13:46:22;;;;;;;9.85;6.45;;;;;;;;;;8251950;28;20441;-61
2022/03/02 13:50:22;;;;;;;10.07;6.72;;;;;;;;;;8252696;28;20029;-61
2022/03/02 13:54:26;;;;;;;8.68;6.03;;;;;;;;;;8251800;28;20034;-61
2022/03/02 13:58:27;;;;;;;12.27;6.45;;;;;;;;;;8251362;28;20033;-61
2022/03/02 14:02:34;;;;;;;8.25;5.90;;;;;;;;;;8249050;28;20119;-61
2022/03/02 14:06:38;;;;;;;9.50;6.50;;;;;;;;;;8250532;28;20403;-61
2022/03/02 14:10:41;;;;;;;10.40;5.70;;;;;;;;;;8248707;28;20968;-61
2022/03/02 14:14:41;;;;;;;13.98;6.00;;;;;;;;;;8249980;28;20041;-61
2022/03/02 14:18:42;;;;;;;16.05;8.05;;;;;;;;;;8249931;28;20042;-61
2022/03/02 14:22:42;;;;;;;14.63;6.55;;;;;;;;;;8249299;28;20061;-62
2022/03/02 14:26:53;;;;;;;9.68;6.22;;;;;;;;;;8248710;28;20121;-61
2022/03/02 14:30:54;;;;;;;12.25;6.43;;;;;;;;;;8246485;28;20034;-61
2022/03/02 14:34:56;;;;;;;15.60;5.82;;;;;;;;;;8249451;28;20736;-61
2022/03/02 14:39:00;;;;;;;14.07;6.00;;;;;;;;;;8250932;28;20148;-61
2022/03/02 14:43:07;;;;;;;8.95;6.32;;;;;;;;;;8248416;28;20123;-61
2022/03/02 14:47:23;;;;;;;12.40;6.72;;;;;;;;;;8249887;28;20076;-61
2022/03/02 14:51:25;;;;;;;9.38;6.50;;;;;;;;;;8246401;28;20422;-61
2022/03/02 14:55:27;;;;;;;11.80;6.57;;;;;;;;;;8248251;28;20354;-61
2022/03/02 14:59:27;;;;;;;16.15;6.57;;;;;;;;;;8249569;28;20025;-61
2022/03/02 15:03:29;;;;;;;10.55;6.63;;;;;;;;;;8245060;28;20108;-61
2022/03/02 15:07:39;;;;;;;11.27;6.18;;;;;;;;;;8248068;28;20037;-61
2022/03/02 15:11:44;;;;;;;9.63;5.78;;;;;;;;;;8246919;28;20060;-61
2022/03/02 15:15:50;;;;;;;9.07;6.10;;;;;;;;;;8246468;28;20409;-61
2022/03/02 15:19:59;;;;;;;10.52;6.32;;;;;;;;;;8247089;28;20116;-61
2022/03/02 15:24:00;;;;;;;9.10;6.20;;;;;;;;;;8246462;28;20057;-62
2022/03/02 15:28:02;;;;;;;8.15;6.00;;;;;;;;;;8245458;28;20146;-62
2022/03/02 15:32:04;;;;;;;15.48;6.78;;;;;;;;;;8245162;28;20049;-62
2022/03/02 15:36:07;;;;;;;11.88;6.70;;;;;;;;;;8251377;28;20919;-62
2022/03/02 15:40:09;;;;;;;9.65;6.30;;;;;;;;;;8251550;28;20509;-62
2022/03/02 15:44:11;;;;;;;9.38;6.45;;;;;;;;;;8253618;28;20582;-62
2022/03/02 15:48:19;;;;;;;14.65;7.60;;;;;;;;;;8253073;28;20042;-62
2022/03/02 15:52:29;;;;;;;9.25;6.97;;;;;;;;;;8267412;28;20029;-62
2022/03/02 15:56:29;;;;;;;14.48;7.15;;;;;;;;;;8250072;28;20053;-62
2022/03/02 16:00:49;;;;;;;9.80;6.70;;;;;;;;;;8248530;28;20506;-62
2022/03/02 16:04:59;;;;;;;9.77;6.38;;;;;;;;;;8249929;28;20034;-62
2022/03/02 16:09:13;;;;;;;8.98;6.55;;;;;;;;;;8252556;28;20076;-62
2022/03/02 16:13:23;;;;;;;8.82;6.60;;;;;;;;;;8249708;28;20022;-62
2022/03/02 16:17:38;;;;;;;12.20;6.65;;;;;;;;;;8251143;28;20041;-62
2022/03/02 16:21:58;;;;;;;8.80;6.47;;;;;;;;;;8250621;28;20859;-62
2022/03/02 16:25:59;;;;;;;9.68;5.95;;;;;;;;;;8249214;28;20197;-62
2022/03/02 16:30:00;;;;;;;9.60;6.75;;;;;;;;;;8249760;28;20869;-62
2022/03/02 16:34:01;;;;;;;11.50;6.43;;;;;;;;;;8248875;28;20053;-62
2022/03/02 16:38:01;;;;;;;9.95;6.82;;;;;;;;;;8251309;28;20021;-62
2022/03/02 16:42:02;;;;;;;11.30;6.88;;;;;;;;;;8249458;28;20136;-62
2022/03/02 16:46:03;;;;;;;9.07;6.18;;;;;;;;;;8250265;28;20080;-62
2022/03/02 16:50:06;;;;;;;12.10;6.65;;;;;;;;;;8251621;28;20038;-62
2022/03/02 16:54:07;;;;;;;9.30;6.72;;;;;;;;;;8256333;28;20069;-62
2022/03/02 16:58:08;;;;;;;11.10;7.00;;;;;;;;;;8252505;28;20384;-63
2022/03/02 17:02:08;;;;;;;9.15;6.38;;;;;;;;;;8252749;28;20661;-62
2022/03/02 17:10:27;;;;;;;10.75;6.95;;;;;;;;;;8250778;28;20165;-62
2022/03/02 17:14:31;;;;;;;10.02;6.15;;;;;;;;;;8253586;28;20026;-62
2022/03/02 17:18:31;;;;;;;10.57;6.97;;;;;;;;;;8265541;28;20348;-62
2022/03/02 17:22:31;;;;;;;19.17;8.75;;;;;;;;;;8253159;28;20034;-62
2022/03/02 17:26:32;;;;;;;15.13;8.15;;;;;;;;;;8251760;28;20029;-62
2022/03/02 17:30:32;;;;;;;15.50;8.57;;;;;;;;;;8251461;28;20044;-62
2022/03/02 17:34:33;;;;;;;11.10;7.57;;;;;;;;;;8250750;28;20022;-62
2022/03/02 17:38:33;;;;;;;15.98;8.77;;;;;;;;;;8251404;28;20038;-62
2022/03/02 17:42:34;;;;;;;14.68;8.77;;;;;;;;;;8252605;28;20030;-62
2022/03/02 17:46:35;;;;;;;18.98;9.40;;;;;;;;;;8252217;28;20045;-62
2022/03/02 17:50:36;;;;;;;15.27;7.90;;;;;;;;;;8251238;28;20027;-62
2022/03/02 17:54:36;;;;;;;10.30;7.45;;;;;;;;;;8253744;28;20025;-62
2022/03/02 17:58:37;;;;;;;14.25;8.05;;;;;;;;;;8253558;28;20029;-62
2022/03/02 18:02:37;;;;;;;13.27;7.68;;;;;;;;;;8255740;28;20108;-62
2022/03/02 18:06:38;;;;;;;14.25;9.40;;;;;;;;;;8252182;28;20056;-62
2022/03/02 18:10:38;;;;;;;13.38;9.23;;;;;;;;;;8250809;28;20038;-62
2022/03/02 18:14:38;;;;;;;17.45;11.10;;;;;;;;;;8250739;28;20029;-62
2022/03/02 18:18:40;;;;;;;14.95;9.35;;;;;;;;;;8249372;28;20042;-61
2022/03/02 18:22:40;;;;;;;10.85;7.53;;;;;;;;;;8251514;28;20141;-62
2022/03/02 18:26:44;;;;;;;13.17;8.17;;;;;;;;;;8249669;28;20061;-61
2022/03/02 18:30:44;;;;;;;9.93;6.90;;;;;;;;;;8249292;28;20264;-62
2022/03/02 18:34:46;;;;;;;13.23;6.93;;;;;;;;;;8248767;28;20033;-62
2022/03/02 18:38:46;;;;;;;11.60;7.13;;;;;;;;;;8250687;28;20257;-62
2022/03/02 18:42:46;;;;;;;11.13;6.72;;;;;;;;;;8251280;28;20056;-61
2022/03/02 18:46:47;;;;;;;10.75;7.35;;;;;;;;;;8250886;28;20073;-62
2022/03/02 18:50:48;;;;;;;11.98;7.03;;;;;;;;;;8250681;28;20566;-61
2022/03/02 18:54:48;;;;;;;9.30;6.88;;;;;;;;;;8251686;28;20044;-61
2022/03/02 18:58:48;;;;;;;9.57;6.50;;;;;;;;;;8251608;28;20030;-62
2022/03/02 19:02:48;;;;;;;8.63;6.43;;;;;;;;;;8248451;28;20076;-61
2022/03/02 19:06:49;;;;;;;9.45;6.70;;;;;;;;;;8249362;28;20034;-61
2022/03/02 19:10:50;;;;;;;8.23;6.18;;;;;;;;;;8256762;28;20121;-61
2022/03/02 19:14:50;;;;;;;14.02;6.90;;;;;;;;;;8255427;28;20065;-61
2022/03/02 19:18:51;;;;;;;10.43;6.75;;;;;;;;;;8255037;28;20042;-61
2022/03/02 19:22:52;;;;;;;8.77;7.00;;;;;;;;;;8254642;28;20034;-61
2022/03/02 19:26:52;;;;;;;12.52;7.53;;;;;;;;;;8255498;28;20044;-62
2022/03/02 19:30:52;;;;;;;10.63;6.55;;;;;;;;;;8255915;28;20137;-61
2022/03/02 19:34:53;;;;;;;11.18;7.22;;;;;;;;;;8253872;28;20034;-61
2022/03/02 19:43:14;;;;;;;8.18;5.97;;;;;;;;;;8252205;28;20799;-61
2022/03/02 19:47:19;;;;;;;9.82;6.85;;;;;;;;;;8256216;28;20565;-61
2022/03/02 19:51:21;;;;;;;9.43;6.53;;;;;;;;;;8252493;28;20141;-61
2022/03/02 19:55:21;;;;;;;10.15;6.45;;;;;;;;;;8256839;28;20529;-62
2022/03/02 19:59:22;;;;;;;8.65;6.05;;;;;;;;;;8254885;28;20781;-61
2022/03/02 20:03:22;;;;;;;8.95;5.70;;;;;;;;;;8249106;28;21117;-62
2022/03/02 20:07:25;;;;;;;11.30;7.20;;;;;;;;;;8252732;28;20675;-61
2022/03/02 20:11:26;;;;;;;9.18;6.50;;;;;;;;;;8251574;28;20034;-61
2022/03/02 20:15:26;;;;;;;10.48;7.25;;;;;;;;;;8248665;28;20053;-61
2022/03/02 20:19:27;;;;;;;8.68;6.18;;;;;;;;;;8248954;28;20331;-61
2022/03/02 20:23:27;;;;;;;12.00;6.07;;;;;;;;;;8247907;28;20095;-61
2022/03/02 20:27:27;;;;;;;9.55;5.70;;;;;;;;;;8249639;28;20371;-62
2022/03/02 20:31:27;;;;;;;9.83;6.13;;;;;;;;;;8251488;28;20096;-61
2022/03/02 20:35:28;;;;;;;9.00;6.28;;;;;;;;;;8248601;28;20295;-61
2022/03/02 20:39:28;;;;;;;14.55;6.28;;;;;;;;;;8252215;28;20538;-61
2022/03/02 20:43:29;;;;;;;7.25;5.70;;;;;;;;;;8253234;28;20036;-61
2022/03/02 20:47:29;;;;;;;8.25;5.72;;;;;;;;;;8253329;28;20053;-61
2022/03/02 20:51:29;;;;;;;10.95;6.22;;;;;;;;;;8253544;28;20037;-61
2022/03/02 20:55:29;;;;;;;10.20;5.27;;;;;;;;;;8254795;28;20096;-61
2022/03/02 20:59:30;;;;;;;14.57;5.60;;;;;;;;;;8255141;28;20277;-61
2022/03/02 21:03:30;;;;;;;7.40;5.20;;;;;;;;;;8253210;28;20038;-61
2022/03/02 21:07:30;;;;;;;9.32;5.88;;;;;;;;;;8252782;28;20087;-61
2022/03/02 21:11:30;;;;;;;9.57;5.72;;;;;;;;;;8251072;28;20062;-61
2022/03/02 21:15:30;;;;;;;8.60;5.82;;;;;;;;;;8252379;28;20466;-61
2022/03/02 21:19:31;;;;;;;12.65;5.22;;;;;;;;;;8250140;28;20033;-61
2022/03/02 21:23:31;;;;;;;7.50;5.50;;;;;;;;;;8250561;28;20037;-61
2022/03/02 21:27:31;;;;;;;11.65;6.18;;;;;;;;;;8249751;28;20280;-61
2022/03/02 21:31:31;;;;;;;9.15;5.80;;;;;;;;;;8247794;28;20037;-61
2022/03/02 21:35:31;;;;;;;8.50;5.85;;;;;;;;;;8251276;28;20751;-61
2022/03/02 21:39:32;;;;;;;8.25;5.72;;;;;;;;;;8250959;28;20643;-61
2022/03/02 21:43:34;;;;;;;10.60;7.03;;;;;;;;;;8249142;28;20072;-61
2022/03/02 21:47:34;;;;;;;11.00;6.93;;;;;;;;;;8250803;28;20041;-61
2022/03/02 21:51:34;;;;;;;10.45;6.80;;;;;;;;;;8251669;28;20113;-61
2022/03/02 21:55:34;;;;;;;11.33;7.33;;;;;;;;;;8251265;28;20026;-61
2022/03/02 21:59:35;;;;;;;11.98;7.38;;;;;;;;;;8252668;28;20261;-61
2022/03/02 22:03:35;;;;;;;8.57;6.45;;;;;;;;;;8251570;28;20557;-61
2022/03/02 22:07:35;;;;;;;11.25;7.30;;;;;;;;;;8253456;28;20038;-61
2022/03/02 22:11:35;;;;;;;14.60;7.07;;;;;;;;;;8250697;28;20316;-61
2022/03/02 22:15:40;;;;;;;12.05;6.90;;;;;;;;;;8248068;28;20304;-61
2022/03/02 22:19:41;;;;;;;11.50;7.28;;;;;;;;;;8250924;28;20029;-61
2022/03/02 22:23:41;;;;;;;10.55;6.43;;;;;;;;;;8251109;28;20018;-61
2022/03/02 22:27:41;;;;;;;9.80;5.85;;;;;;;;;;8249647;28;20085;-61
2022/03/02 22:31:41;;;;;;;10.00;5.90;;;;;;;;;;8251013;28;20125;-61
2022/03/02 22:35:42;;;;;;;9.32;5.97;;;;;;;;;;8247938;28;20031;-61
2022/03/02 22:39:42;;;;;;;9.50;5.78;;;;;;;;;;8250120;28;20026;-61
2022/03/02 22:43:42;;;;;;;9.55;6.32;;;;;;;;;;8246864;28;20038;-61
2022/03/02 22:47:44;;;;;;;11.80;6.13;;;;;;;;;;8248117;28;20046;-61
2022/03/02 22:51:44;;;;;;;8.35;5.90;;;;;;;;;;8248578;28;20201;-61
2022/03/02 22:55:44;;;;;;;9.53;6.13;;;;;;;;;;8246271;28;20065;-61
2022/03/02 22:59:45;;;;;;;12.57;5.95;;;;;;;;;;8249392;28;20272;-61
2022/03/02 23:03:45;;;;;;;9.07;6.45;;;;;;;;;;8248778;28;20042;-61
2022/03/02 23:16:23;;;;;;;8.30;6.22;;;;;;;;;;8250297;28;20045;-61
2022/03/02 23:20:24;;;;;;;8.90;5.97;;;;;;;;;;8248145;28;20026;-61
2022/03/02 23:24:24;;;;;;;9.75;6.35;;;;;;;;;;8249394;28;20026;-61
2022/03/02 23:28:24;;;;;;;12.23;6.88;;;;;;;;;;8248935;28;20064;-61
2022/03/02 23:32:24;;;;;;;13.07;6.80;;;;;;;;;;8247401;28;20045;-61
2022/03/02 23:36:24;;;;;;;11.07;7.20;;;;;;;;;;8249726;28;20030;-61
2022/03/02 23:40:24;;;;;;;10.18;6.63;;;;;;;;;;8248014;28;20472;-62
2022/03/02 23:44:25;;;;;;;8.73;5.80;;;;;;;;;;8248100;28;20636;-61
2022/03/02 23:48:25;;;;;;;9.68;6.28;;;;;;;;;;8247026;28;20046;-61
2022/03/02 23:52:25;;;;;;;7.90;5.55;;;;;;;;;;8248021;28;20072;-61
2022/03/02 23:56:26;;;;;;;10.27;6.55;;;;;;;;;;8256811;28;20693;-61
